Time;durP1;ratioP1;P1;durP2;ratioP2;P2;SDS_P1;SDS_P2;PMS_P1;PMS_P2;Temp;Humidity;BMP_temperature;BMP_pressure;BME280_temperature;BME280_humidity;BME280_pressure;Samples;Min_cycle;Max_cycle;Signal;HPM_P1;HPM_P2
2023/04/13 00:00:34;;;;;;;5.80;2.90;;;5.20;99.90;;;;;;5093631;28;20047;-69
2023/04/13 00:03:00;;;;;;;6.35;2.85;;;5.20;99.90;;;;;;5091995;28;20485;-69
2023/04/13 00:05:27;;;;;;;4.28;2.80;;;5.30;99.90;;;;;;5095688;28;20043;-69
2023/04/13 00:07:53;;;;;;;4.95;2.63;;;5.40;99.90;;;;;;5105486;28;20056;-68
2023/04/13 00:10:19;;;;;;;;;;;5.40;99.90;;;;;;5080027;28;20099;-68
2023/04/13 00:12:48;;;;;;;4.53;2.45;;;5.50;99.90;;;;;;5102786;28;19924;-69
2023/04/13 00:15:16;;;;;;;4.63;2.40;;;5.60;99.90;;;;;;5106734;28;20048;-68
2023/04/13 00:17:43;;;;;;;3.13;1.83;;;5.70;99.90;;;;;;5092840;28;20390;-69
2023/04/13 00:20:13;;;;;;;5.30;2.10;;;5.80;99.90;;;;;;5074310;28;20412;-69
2023/04/13 00:22:43;;;;;;;3.45;2.15;;;5.90;99.90;;;;;;5074888;28;20372;-68
2023/04/13 00:25:11;;;;;;;3.03;1.88;;;5.90;99.90;;;;;;5107417;28;20051;-69
2023/04/13 00:27:41;;;;;;;3.00;2.05;;;6.00;99.90;;;;;;5095344;28;20125;-69
2023/04/13 00:30:17;;;;;;;3.35;2.30;;;6.00;99.90;;;;;;5093115;28;20057;-68
2023/04/13 00:32:44;;;;;;;4.53;1.80;;;6.10;99.90;;;;;;5092614;28;20481;-68
2023/04/13 00:35:11;;;;;;;3.25;2.17;;;6.10;99.90;;;;;;5092379;28;20047;-68
2023/04/13 00:37:38;;;;;;;2.72;1.75;;;6.20;99.90;;;;;;5074289;28;20052;-69
2023/04/13 00:40:06;;;;;;;3.72;2.05;;;6.30;99.90;;;;;;5091508;28;20769;-69
2023/04/13 00:42:32;;;;;;;2.53;1.60;;;6.40;99.90;;;;;;5093249;28;20493;-68
2023/04/13 00:44:58;;;;;;;2.60;1.63;;;6.50;99.90;;;;;;5074348;28;20044;-69
2023/04/13 00:47:31;;;;;;;3.50;1.30;;;6.50;99.90;;;;;;5092576;28;20046;-68
2023/04/13 00:49:59;;;;;;;4.10;1.50;;;6.60;99.90;;;;;;5076120;28;20047;-69
2023/04/13 00:52:25;;;;;;;4.45;1.33;;;6.60;99.90;;;;;;5096327;28;20044;-68
2023/04/13 00:54:55;;;;;;;3.53;1.42;;;6.60;99.90;;;;;;5092767;28;20044;-70
2023/04/13 00:57:22;;;;;;;1.70;1.35;;;6.60;99.90;;;;;;5075249;28;20060;-68
2023/04/13 00:59:49;;;;;;;3.78;1.13;;;6.60;99.90;;;;;;5075248;28;20448;-69
2023/04/13 01:02:17;;;;;;;;;;;6.60;99.90;;;;;;5074433;28;20138;-69
2023/04/13 01:04:44;;;;;;;2.17;1.30;;;6.50;99.90;;;;;;5092292;28;19920;-69
2023/04/13 01:07:48;;;;;;;2.20;1.20;;;6.40;99.90;;;;;;5091168;28;20056;-69
2023/04/13 01:10:27;;;;;;;1.70;1.23;;;6.40;99.90;;;;;;5009253;28;20054;-68
2023/04/13 01:13:14;;;;;;;2.33;1.23;;;6.40;99.90;;;;;;5011660;28;20058;-71
2023/04/13 01:15:52;;;;;;;2.38;1.17;;;6.20;99.90;;;;;;5080345;28;20059;-69
2023/04/13 01:18:19;;;;;;;1.95;1.02;;;6.20;99.90;;;;;;5111821;28;20468;-69
2023/04/13 01:20:46;;;;;;;3.40;1.35;;;6.30;99.90;;;;;;5094927;28;20048;-68
2023/04/13 01:23:53;;;;;;;3.80;1.35;;;6.10;99.90;;;;;;5094745;28;20506;-68
2023/04/13 01:26:21;;;;;;;3.20;1.10;;;6.10;99.90;;;;;;5069096;28;20177;-69
2023/04/13 01:28:50;;;;;;;2.63;1.42;;;6.10;99.90;;;;;;5092305;28;20059;-68
2023/04/13 01:31:16;;;;;;;0.77;0.77;;;6.00;99.90;;;;;;5091864;28;20048;-69
2023/04/13 01:33:42;;;;;;;4.32;1.30;;;6.00;99.90;;;;;;5100261;28;20039;-69
2023/04/13 01:36:09;;;;;;;;;;;6.00;99.90;;;;;;5102476;28;20048;-68
2023/04/13 01:38:36;;;;;;;1.55;1.10;;;6.00;99.90;;;;;;5091173;28;19920;-69
2023/04/13 01:41:02;;;;;;;2.58;0.90;;;6.10;99.90;;;;;;5091655;28;20416;-68
2023/04/13 01:43:29;;;;;;;2.53;1.23;;;6.10;99.90;;;;;;5111796;28;20052;-69
2023/04/13 01:46:02;;;;;;;1.52;1.02;;;6.10;99.90;;;;;;5094129;28;20401;-71
2023/04/13 01:48:54;;;;;;;2.78;1.27;;;6.00;99.90;;;;;;5111195;28;20087;-68
2023/04/13 01:51:28;;;;;;;1.58;1.00;;;6.00;99.90;;;;;;5110366;28;20048;-69
2023/04/13 01:54:01;;;;;;;2.97;1.63;;;5.90;99.90;;;;;;5094208;28;20507;-68
2023/04/13 01:56:28;;;;;;;2.60;1.15;;;6.00;99.90;;;;;;5109963;28;20100;-69
2023/04/13 01:58:57;;;;;;;1.35;1.02;;;6.00;99.90;;;;;;5106231;28;20083;-69
2023/04/13 02:01:23;;;;;;;1.00;0.90;;;6.00;99.90;;;;;;5102776;28;20043;-69
2023/04/13 02:03:50;;;;;;;2.17;1.10;;;6.10;99.90;;;;;;5111241;28;20047;-69
2023/04/13 02:06:15;;;;;;;4.20;1.60;;;6.00;99.90;;;;;;5110459;28;20427;-69
2023/04/13 02:08:41;;;;;;;2.92;1.02;;;6.00;99.90;;;;;;5096725;28;20035;-68
2023/04/13 02:11:07;;;;;;;5.43;1.40;;;6.10;99.90;;;;;;5107464;28;20184;-68
2023/04/13 02:13:33;;;;;;;3.35;1.27;;;6.00;99.90;;;;;;5111495;28;20059;-70
2023/04/13 02:15:59;;;;;;;1.73;1.02;;;6.00;99.90;;;;;;5106732;28;20039;-72
2023/04/13 02:18:26;;;;;;;1.08;1.02;;;6.00;99.90;;;;;;5110478;28;20322;-69
2023/04/13 02:21:10;;;;;;;1.00;1.00;;;6.00;99.90;;;;;;5077189;28;20044;-69
2023/04/13 02:23:37;;;;;;;1.85;1.10;;;5.90;99.90;;;;;;5072470;28;20059;-69
2023/04/13 02:26:07;;;;;;;2.00;1.10;;;5.90;99.90;;;;;;5090989;28;20126;-69
2023/04/13 02:28:33;;;;;;;1.70;0.95;;;5.90;99.90;;;;;;5108737;28;20059;-69
2023/04/13 02:30:59;;;;;;;1.02;0.93;;;5.90;99.90;;;;;;5093634;28;20055;-71
2023/04/13 02:33:30;;;;;;;2.95;1.30;;;5.90;99.90;;;;;;5108338;28;20107;-69
2023/04/13 02:35:59;;;;;;;3.70;1.40;;;5.90;99.90;;;;;;5106768;28;20058;-69
2023/04/13 02:38:27;;;;;;;2.10;1.30;;;5.80;99.90;;;;;;5082658;28;20051;-69
2023/04/13 02:41:02;;;;;;;1.83;1.10;;;5.80;99.90;;;;;;5091584;28;20547;-70
2023/04/13 02:43:28;;;;;;;1.20;1.10;;;5.80;99.90;;;;;;5110892;28;20492;-69
2023/04/13 02:45:55;;;;;;;3.30;1.27;;;5.80;99.90;;;;;;5093193;28;20512;-69
2023/04/13 02:48:21;;;;;;;7.07;1.30;;;5.80;99.90;;;;;;5091276;28;20059;-69
2023/04/13 02:50:47;;;;;;;2.97;1.25;;;5.80;99.90;;;;;;5104287;28;20052;-69
2023/04/13 02:53:13;;;;;;;;;;;5.80;99.90;;;;;;5071845;28;20055;-70
2023/04/13 02:55:38;;;;;;;4.10;0.93;;;5.80;99.90;;;;;;5091058;28;19965;-69
2023/04/13 02:58:05;;;;;;;1.85;1.20;;;5.80;99.90;;;;;;5090428;28;20127;-69
2023/04/13 03:00:31;;;;;;;1.95;1.40;;;5.90;99.90;;;;;;5091003;28;20488;-69
2023/04/13 03:02:58;;;;;;;1.20;1.10;;;5.90;99.90;;;;;;5110256;28;20056;-69
2023/04/13 03:05:23;;;;;;;;;;;5.90;99.90;;;;;;5097803;28;20473;-70
2023/04/13 03:07:49;;;;;;;0.90;0.88;;;5.90;99.90;;;;;;5098862;28;19926;-69
2023/04/13 03:10:15;;;;;;;2.55;1.10;;;5.90;99.90;;;;;;5110725;28;20063;-70
2023/04/13 03:12:40;;;;;;;1.52;1.15;;;6.00;99.90;;;;;;5103537;28;20052;-70
2023/04/13 03:15:09;;;;;;;3.72;1.35;;;5.80;99.90;;;;;;5090520;28;20043;-70
2023/04/13 03:17:39;;;;;;;3.45;1.13;;;5.80;99.90;;;;;;5090001;28;20044;-70
2023/04/13 03:20:15;;;;;;;1.58;1.10;;;5.80;99.90;;;;;;5104232;28;20079;-72
2023/04/13 03:22:42;;;;;;;3.00;1.20;;;5.80;99.90;;;;;;5077508;28;20412;-69
2023/04/13 03:25:08;;;;;;;3.30;1.25;;;5.90;99.90;;;;;;5089917;28;20161;-70
2023/04/13 03:27:35;;;;;;;4.13;1.30;;;5.80;99.90;;;;;;5103437;28;20047;-70
2023/04/13 03:30:05;;;;;;;4.47;1.33;;;5.80;99.90;;;;;;5111016;28;20143;-70
2023/04/13 03:32:31;;;;;;;1.33;0.82;;;5.80;99.90;;;;;;5091667;28;20492;-70
2023/04/13 03:34:57;;;;;;;2.72;1.50;;;5.80;99.90;;;;;;5110461;28;20069;-70
2023/04/13 03:37:23;;;;;;;2.38;1.33;;;5.80;99.90;;;;;;5081949;28;20560;-70
2023/04/13 03:39:48;;;;;;;2.72;1.45;;;5.80;99.90;;;;;;5077928;28;20047;-70
2023/04/13 03:42:14;;;;;;;3.00;1.70;;;5.90;99.90;;;;;;5109212;28;20079;-70
2023/04/13 03:44:39;;;;;;;4.78;1.58;;;5.90;99.90;;;;;;5107792;28;20044;-70
2023/04/13 03:47:08;;;;;;;3.92;1.50;;;5.90;99.90;;;;;;5094777;28;20048;-70
2023/04/13 03:49:34;;;;;;;1.52;1.20;;;5.90;99.90;;;;;;5110525;28;20079;-70
2023/04/13 03:52:00;;;;;;;2.47;1.42;;;5.90;99.90;;;;;;5101919;28;20044;-70
2023/04/13 03:54:25;;;;;;;1.92;1.30;;;5.90;99.90;;;;;;5089884;28;20048;-69
2023/04/13 03:56:51;;;;;;;5.95;1.77;;;6.00;99.90;;;;;;5072350;28;20052;-70
2023/04/13 03:59:17;;;;;;;3.97;1.88;;;6.00;99.90;;;;;;5089870;28;20048;-70
2023/04/13 04:01:42;;;;;;;3.80;1.30;;;6.00;99.90;;;;;;5100876;28;20051;-70
2023/04/13 04:04:08;;;;;;;2.40;1.50;;;6.00;99.90;;;;;;5107716;28;20043;-72
2023/04/13 04:06:34;;;;;;;4.32;1.77;;;6.00;99.90;;;;;;5087227;28;20605;-70
2023/04/13 04:09:00;;;;;;;4.63;1.40;;;6.00;99.90;;;;;;5088016;28;20051;-70
2023/04/13 04:11:26;;;;;;;3.38;1.58;;;6.10;99.90;;;;;;5072044;28;20374;-70
2023/04/13 04:13:51;;;;;;;5.55;1.30;;;6.10;99.90;;;;;;5090794;28;20427;-70
2023/04/13 04:16:17;;;;;;;2.28;1.40;;;6.10;99.90;;;;;;5093585;28;20093;-70
2023/04/13 04:18:43;;;;;;;2.42;1.40;;;6.10;99.90;;;;;;5093016;28;20071;-70
2023/04/13 04:21:11;;;;;;;4.53;1.80;;;6.20;99.90;;;;;;5093414;28;20052;-70
2023/04/13 04:23:38;;;;;;;2.40;1.67;;;6.20;99.90;;;;;;5074373;28;20071;-70
2023/04/13 04:26:05;;;;;;;2.90;1.73;;;6.30;99.90;;;;;;5102033;28;20079;-67
2023/04/13 04:28:37;;;;;;;3.40;1.95;;;6.20;99.90;;;;;;5113013;28;20815;-67
2023/04/13 04:31:09;;;;;;;3.95;1.80;;;6.20;99.90;;;;;;5113461;28;20419;-67
2023/04/13 04:33:37;;;;;;;4.07;1.50;;;6.30;99.90;;;;;;5111509;28;20051;-68
2023/04/13 04:36:08;;;;;;;5.53;1.88;;;6.30;99.90;;;;;;5095848;28;20481;-67
2023/04/13 04:38:34;;;;;;;2.15;1.42;;;6.30;99.90;;;;;;5083303;28;20843;-67
2023/04/13 04:41:01;;;;;;;4.30;1.90;;;6.30;99.90;;;;;;5093360;28;20054;-67
2023/04/13 04:43:31;;;;;;;4.18;1.70;;;6.30;99.90;;;;;;5109651;28;20062;-67
2023/04/13 04:45:56;;;;;;;3.95;1.67;;;6.30;99.90;;;;;;5106957;28;20052;-69
2023/04/13 04:48:25;;;;;;;7.20;2.00;;;6.30;99.90;;;;;;5091477;28;20499;-68
2023/04/13 04:50:52;;;;;;;2.58;1.70;;;6.30;99.90;;;;;;5109793;28;20075;-68
2023/04/13 04:53:17;;;;;;;5.05;1.80;;;6.20;99.90;;;;;;5111960;28;20175;-68
2023/04/13 04:55:43;;;;;;;3.55;1.80;;;6.20;99.90;;;;;;5113467;28;20051;-67
2023/04/13 04:58:09;;;;;;;2.55;1.63;;;6.30;99.90;;;;;;5097387;28;20087;-68
2023/04/13 05:00:34;;;;;;;3.97;1.92;;;6.20;99.90;;;;;;5074680;28;20624;-70
2023/04/13 05:03:00;;;;;;;2.78;1.67;;;6.20;99.90;;;;;;5073949;28;20052;-70
2023/04/13 05:05:29;;;;;;;;;;;6.20;99.90;;;;;;5095152;28;20092;-70
2023/04/13 05:07:55;;;;;;;3.58;1.95;;;6.10;99.90;;;;;;5093532;28;19920;-70
2023/04/13 05:10:23;;;;;;;5.00;1.70;;;6.00;99.90;;;;;;5101373;28;20400;-69
2023/04/13 05:12:49;;;;;;;5.78;2.03;;;5.90;99.90;;;;;;5092721;28;20048;-69
2023/04/13 05:15:15;;;;;;;;;;;5.90;99.90;;;;;;5093155;28;20040;-71
2023/04/13 05:17:45;;;;;;;6.35;2.05;;;6.00;99.90;;;;;;5091791;28;19920;-70
2023/04/13 05:20:12;;;;;;;8.82;1.80;;;5.80;99.90;;;;;;5091187;28;20052;-69
2023/04/13 05:22:38;;;;;;;6.43;2.15;;;5.70;99.90;;;;;;5073179;28;20118;-71
2023/04/13 05:25:05;;;;;;;5.43;2.08;;;5.70;99.90;;;;;;5097922;28;20101;-69
2023/04/13 05:27:31;;;;;;;5.03;2.10;;;5.70;99.90;;;;;;5074171;28;20052;-70
2023/04/13 05:29:57;;;;;;;7.63;2.28;;;5.60;99.90;;;;;;5092314;28;20047;-70
2023/04/13 05:32:23;;;;;;;4.25;1.85;;;5.70;99.90;;;;;;5091221;28;20101;-70
2023/04/13 05:34:50;;;;;;;9.05;2.35;;;5.70;99.90;;;;;;5099257;28;20039;-69
2023/04/13 05:37:15;;;;;;;6.20;2.30;;;5.70;99.90;;;;;;5093330;28;20039;-70
2023/04/13 05:39:41;;;;;;;6.00;2.25;;;5.80;99.90;;;;;;5112102;28;20042;-70
2023/04/13 05:42:07;;;;;;;4.80;2.10;;;5.80;99.90;;;;;;5094540;28;20090;-70
2023/04/13 05:44:32;;;;;;;7.57;2.97;;;5.80;99.90;;;;;;5109623;28;20464;-70
2023/04/13 05:46:58;;;;;;;7.88;3.05;;;5.90;99.90;;;;;;5095388;28;20054;-69
2023/04/13 05:49:24;;;;;;;6.80;2.67;;;6.00;99.90;;;;;;5091100;28;20052;-70
2023/04/13 05:51:52;;;;;;;5.72;2.63;;;6.00;99.90;;;;;;5097895;28;20448;-70
2023/04/13 05:54:18;;;;;;;7.57;2.60;;;6.00;99.90;;;;;;5093669;28;20392;-73
2023/04/13 05:56:46;;;;;;;6.57;2.65;;;6.10;99.90;;;;;;5112357;28;20100;-70
2023/04/13 05:59:13;;;;;;;7.30;2.70;;;6.20;99.90;;;;;;5094238;28;20060;-70
2023/04/13 06:01:38;;;;;;;8.05;2.72;;;6.20;99.90;;;;;;5093201;28;20179;-69
2023/04/13 06:04:04;;;;;;;6.95;2.90;;;6.30;99.90;;;;;;5110616;28;20052;-69
2023/04/13 06:06:31;;;;;;;6.95;2.40;;;6.40;99.90;;;;;;5080235;28;20060;-72
2023/04/13 06:08:57;;;;;;;6.82;2.38;;;6.50;99.90;;;;;;5090752;28;20458;-69
2023/04/13 06:11:24;;;;;;;4.93;2.22;;;6.60;99.90;;;;;;5096584;28;20044;-68
2023/04/13 06:13:50;;;;;;;7.30;2.72;;;6.60;99.90;;;;;;5111437;28;20126;-68
2023/04/13 06:16:17;;;;;;;5.38;2.60;;;6.60;99.90;;;;;;5098596;28;20134;-67
2023/04/13 06:18:43;;;;;;;5.78;2.85;;;6.60;99.90;;;;;;5100101;28;20485;-67
2023/04/13 06:21:09;;;;;;;5.10;2.30;;;6.60;99.90;;;;;;5099709;28;20512;-67
2023/04/13 06:23:36;;;;;;;7.07;2.60;;;6.60;99.90;;;;;;5088777;28;20047;-67
2023/04/13 06:26:02;;;;;;;5.57;2.78;;;6.50;99.90;;;;;;5073007;28;20048;-67
2023/04/13 06:28:27;;;;;;;8.43;2.53;;;6.60;99.90;;;;;;5096155;28;20517;-67
2023/04/13 06:30:54;;;;;;;10.00;2.58;;;6.60;99.90;;;;;;5091448;28;20055;-67
2023/04/13 06:33:21;;;;;;;4.35;2.25;;;6.60;99.90;;;;;;5106184;28;20044;-69
2023/04/13 06:35:48;;;;;;;6.78;2.88;;;6.70;99.90;;;;;;5111278;28;20492;-66
2023/04/13 06:38:14;;;;;;;9.35;3.45;;;6.80;99.90;;;;;;5091528;28;20558;-68
2023/04/13 06:40:40;;;;;;;;;;;6.90;99.90;;;;;;5073156;28;20482;-68
2023/04/13 06:43:06;;;;;;;6.95;2.70;;;6.90;99.90;;;;;;5090890;28;19969;-67
2023/04/13 06:45:32;;;;;;;4.93;2.47;;;7.00;99.90;;;;;;5090557;28;20051;-66
2023/04/13 06:47:59;;;;;;;5.75;2.35;;;7.10;99.90;;;;;;5090195;28;20059;-67
2023/04/13 06:50:25;;;;;;;6.03;2.47;;;7.10;99.90;;;;;;5079693;28;20062;-71
2023/04/13 06:52:51;;;;;;;4.20;2.05;;;7.10;99.90;;;;;;5077239;28;20126;-66
2023/04/13 06:55:16;;;;;;;5.55;2.63;;;7.20;99.90;;;;;;5093547;28;20559;-67
2023/04/13 06:57:43;;;;;;;5.63;2.50;;;7.30;99.90;;;;;;5110548;28;20083;-67
2023/04/13 07:00:13;;;;;;;4.82;2.60;;;7.40;99.90;;;;;;5103397;28;20046;-66
2023/04/13 07:02:40;;;;;;;8.70;2.72;;;7.50;99.90;;;;;;5088567;28;20172;-66
2023/04/13 07:05:06;;;;;;;7.07;2.80;;;7.50;99.90;;;;;;5072177;28;20065;-68
2023/04/13 07:07:32;;;;;;;4.57;2.20;;;7.60;99.90;;;;;;5088970;28;20078;-68
2023/04/13 07:09:58;;;;;;;6.88;2.97;;;7.70;99.90;;;;;;5090465;28;20048;-67
2023/04/13 07:12:24;;;;;;;7.68;3.05;;;7.70;99.90;;;;;;5090715;28;20050;-67
2023/04/13 07:14:49;;;;;;;6.97;2.38;;;7.70;99.90;;;;;;5090398;28;20397;-68
2023/04/13 07:17:15;;;;;;;5.50;2.17;;;7.70;99.90;;;;;;5092992;28;20547;-66
2023/04/13 07:19:46;;;;;;;6.25;1.98;;;7.70;99.90;;;;;;5089520;28;20127;-67
2023/04/13 07:22:12;;;;;;;7.75;2.70;;;7.80;99.90;;;;;;5084237;28;20060;-66
2023/04/13 07:24:38;;;;;;;10.35;2.65;;;7.90;99.90;;;;;;5110479;28;20124;-66
2023/04/13 07:27:04;;;;;;;5.45;2.30;;;7.90;99.90;;;;;;5110935;28;20410;-66
2023/04/13 07:29:30;;;;;;;6.63;2.88;;;7.90;99.90;;;;;;5110324;28;20047;-67
2023/04/13 07:32:01;;;;;;;8.85;2.72;;;7.80;99.90;;;;;;5089879;28;20048;-67
2023/04/13 07:34:28;;;;;;;8.73;2.80;;;7.70;99.90;;;;;;5095137;28;20172;-72
2023/04/13 07:36:54;;;;;;;6.38;2.10;;;7.70;99.90;;;;;;5091860;28;20083;-67
2023/04/13 07:39:20;;;;;;;6.53;2.40;;;7.70;99.90;;;;;;5110509;28;20640;-68
2023/04/13 07:41:46;;;;;;;;;;;7.80;99.90;;;;;;5105392;28;20056;-67
2023/04/13 07:44:13;;;;;;;6.93;2.05;;;7.80;99.90;;;;;;5094354;28;20343;-67
2023/04/13 07:46:39;;;;;;;3.60;1.90;;;8.00;99.90;;;;;;5103656;28;20043;-69
2023/04/13 07:49:05;;;;;;;6.65;2.30;;;8.10;99.90;;;;;;5110244;28;20099;-69
2023/04/13 07:51:33;;;;;;;6.60;2.92;;;8.20;99.90;;;;;;5110104;27;20047;-70
2023/04/13 07:53:59;;;;;;;3.50;1.55;;;8.20;99.90;;;;;;5084881;28;20080;-69
2023/04/13 07:56:25;;;;;;;4.15;1.73;;;8.20;99.90;;;;;;5088414;28;20086;-69
2023/04/13 07:58:50;;;;;;;4.63;1.70;;;8.20;99.90;;;;;;5103949;28;20043;-69
2023/04/13 08:01:16;;;;;;;2.55;1.65;;;8.20;99.90;;;;;;5078773;28;20088;-69
2023/04/13 08:03:42;;;;;;;6.32;1.92;;;8.10;99.90;;;;;;5112336;28;20047;-69
2023/04/13 08:06:08;;;;;;;2.78;1.50;;;8.10;99.90;;;;;;5113800;28;20039;-70
2023/04/13 08:08:33;;;;;;;;;;;8.00;99.90;;;;;;5093977;28;20063;-70
2023/04/13 08:11:00;;;;;;;4.25;1.50;;;8.00;99.90;;;;;;5087084;28;19920;-68
2023/04/13 08:13:29;;;;;;;5.78;1.70;;;7.90;99.90;;;;;;5111531;28;20047;-69
2023/04/13 08:15:56;;;;;;;1.92;1.40;;;7.90;99.90;;;;;;5099747;28;20044;-66
2023/04/13 08:18:28;;;;;;;4.63;2.10;;;8.00;99.90;;;;;;5112929;28;20408;-66
2023/04/13 08:20:54;;;;;;;6.22;1.80;;;8.10;99.90;;;;;;5107447;28;20499;-66
2023/04/13 08:23:21;;;;;;;6.47;1.60;;;8.00;99.90;;;;;;5101375;28;20048;-66
2023/04/13 08:25:47;;;;;;;5.35;1.98;;;8.20;99.90;;;;;;5113351;28;20047;-66
2023/04/13 08:28:12;;;;;;;4.18;1.83;;;8.30;99.90;;;;;;5114050;28;20454;-66
2023/04/13 08:30:38;;;;;;;3.15;1.90;;;8.20;99.90;;;;;;5113494;28;20509;-66
2023/04/13 08:33:04;;;;;;;3.85;1.75;;;8.20;99.90;;;;;;5113108;28;20047;-66
2023/04/13 08:35:30;;;;;;;3.60;1.98;;;8.30;99.90;;;;;;5113680;28;20039;-68
2023/04/13 08:37:55;;;;;;;6.68;2.45;;;8.40;99.90;;;;;;5109182;28;20055;-68
2023/04/13 08:40:21;;;;;;;6.90;2.35;;;8.40;99.90;;;;;;5100665;28;20082;-67
2023/04/13 08:42:47;;;;;;;11.00;3.22;;;8.40;99.90;;;;;;5110835;28;20053;-67
2023/04/13 08:45:14;;;;;;;9.32;3.97;;;8.40;99.90;;;;;;5099739;28;20036;-67
2023/04/13 08:47:40;;;;;;;7.32;2.22;;;8.30;99.90;;;;;;5099871;28;20608;-66
2023/04/13 08:50:07;;;;;;;6.50;3.08;;;8.30;99.90;;;;;;5098470;28;20112;-66
2023/04/13 08:52:35;;;;;;;3.58;2.25;;;8.30;99.90;;;;;;5112188;28;20408;-69
2023/04/13 08:55:02;;;;;;;6.47;2.33;;;8.40;99.90;;;;;;5113373;28;20047;-66
2023/04/13 08:57:30;;;;;;;9.55;2.72;;;8.40;99.90;;;;;;5110656;28;20059;-66
2023/04/13 08:59:57;;;;;;;4.68;1.95;;;8.30;99.90;;;;;;5060939;28;20097;-67
2023/04/13 09:02:27;;;;;;;7.10;2.85;;;8.10;99.90;;;;;;5106131;28;20059;-67
2023/04/13 09:05:02;;;;;;;6.20;2.55;;;7.90;99.90;;;;;;5112355;28;20043;-67
2023/04/13 09:07:31;;;;;;;8.27;2.60;;;7.80;99.90;;;;;;5080148;28;20147;-67
2023/04/13 09:09:58;;;;;;;6.20;2.90;;;7.80;99.90;;;;;;5112723;28;20048;-67
2023/04/13 09:12:31;;;;;;;7.20;3.10;;;7.80;99.90;;;;;;5112649;28;20044;-66
2023/04/13 09:14:56;;;;;;;9.38;2.53;;;7.80;99.90;;;;;;5112711;28;20051;-67
2023/04/13 09:17:27;;;;;;;7.28;2.45;;;7.80;99.90;;;;;;5101121;28;20393;-67
2023/04/13 09:19:55;;;;;;;4.78;2.60;;;7.80;99.90;;;;;;5091661;28;20051;-67
2023/04/13 09:22:20;;;;;;;6.53;1.67;;;7.90;99.90;;;;;;5100854;28;20094;-67
2023/04/13 09:24:47;;;;;;;4.63;2.10;;;7.90;99.90;;;;;;5094314;28;20079;-67
2023/04/13 09:27:20;;;;;;;5.28;1.58;;;7.80;99.90;;;;;;5102848;28;20044;-67
2023/04/13 09:29:55;;;;;;;3.60;1.23;;;7.80;99.90;;;;;;5090678;28;20048;-67
2023/04/13 09:32:25;;;;;;;0.60;0.60;;;7.70;99.90;;;;;;5095441;28;20043;-70
2023/04/13 09:35:07;;;;;;;1.83;0.82;;;7.40;99.90;;;;;;5086285;28;20086;-67
2023/04/13 09:37:34;;;;;;;0.80;0.65;;;6.80;99.90;;;;;;5091051;28;20091;-67
2023/04/13 09:40:14;;;;;;;3.22;0.90;;;6.30;99.90;;;;;;5102086;28;20047;-67
2023/04/13 09:42:41;;;;;;;1.30;0.55;;;6.10;99.90;;;;;;5096450;28;20039;-67
2023/04/13 09:45:08;;;;;;;2.83;0.80;;;6.00;99.90;;;;;;5111921;28;20047;-67
2023/04/13 09:47:39;;;;;;;2.22;0.90;;;5.90;99.90;;;;;;5108447;28;20040;-67
2023/04/13 09:50:20;;;;;;;2.15;0.85;;;6.00;99.90;;;;;;5111116;28;20047;-67
2023/04/13 09:52:46;;;;;;;1.48;0.98;;;6.20;99.90;;;;;;5110459;28;20044;-67
2023/04/13 09:55:17;;;;;;;3.05;1.30;;;6.50;99.90;;;;;;5094460;28;20434;-67
2023/04/13 09:57:43;;;;;;;3.85;1.48;;;6.90;99.90;;;;;;5109224;28;20040;-68
2023/04/13 10:00:19;;;;;;;2.95;1.50;;;7.10;99.90;;;;;;5104133;28;20092;-67
2023/04/13 10:02:48;;;;;;;2.40;1.27;;;7.30;99.90;;;;;;5102822;28;20444;-67
2023/04/13 10:05:13;;;;;;;2.28;1.30;;;7.50;99.90;;;;;;5111193;28;20489;-67
2023/04/13 10:07:44;;;;;;;3.92;1.27;;;7.70;99.90;;;;;;5109352;28;20170;-70
2023/04/13 10:10:12;;;;;;;4.13;0.95;;;7.60;99.90;;;;;;5111890;28;20488;-67
2023/04/13 10:12:45;;;;;;;3.30;1.23;;;7.70;99.90;;;;;;5110684;28;20055;-72
2023/04/13 10:15:13;;;;;;;1.85;1.20;;;7.90;99.90;;;;;;5111498;28;20610;-67
2023/04/13 10:17:55;;;;;;;5.90;1.80;;;8.10;99.90;;;;;;5108866;28;20043;-69
2023/04/13 10:20:22;;;;;;;5.95;1.17;;;8.10;99.90;;;;;;5073149;28;20486;-67
2023/04/13 10:22:48;;;;;;;2.10;1.10;;;8.20;99.90;;;;;;5103100;28;20044;-66
2023/04/13 10:25:14;;;;;;;6.07;1.33;;;8.20;99.90;;;;;;5111819;28;20051;-67
2023/04/13 10:27:41;;;;;;;8.52;1.38;;;8.40;99.90;;;;;;5087921;28;20534;-69
2023/04/13 10:30:17;;;;;;;2.50;1.25;;;8.60;99.90;;;;;;5091462;28;20481;-67
2023/04/13 10:32:43;;;;;;;2.63;1.23;;;8.90;99.90;;;;;;5102206;28;20516;-70
2023/04/13 10:35:10;;;;;;;4.30;1.25;;;9.10;99.90;;;;;;5111247;28;20118;-67
2023/04/13 10:37:38;;;;;;;4.22;1.38;;;9.10;99.90;;;;;;5110587;28;20054;-67
2023/04/13 10:40:06;;;;;;;2.47;1.40;;;9.00;99.90;;;;;;5107565;28;20044;-67
2023/04/13 10:42:40;;;;;;;4.93;1.48;;;9.00;99.90;;;;;;5093161;28;20048;-67
2023/04/13 10:45:23;;;;;;;4.32;1.65;;;8.90;99.90;;;;;;5092715;28;20043;-66
2023/04/13 10:47:49;;;;;;;10.48;2.15;;;8.80;99.90;;;;;;5091916;28;20097;-68
2023/04/13 10:50:16;;;;;;;7.50;2.20;;;8.80;99.90;;;;;;5092747;28;20058;-67
2023/04/13 10:52:59;;;;;;;10.05;1.63;;;8.90;99.90;;;;;;5096643;28;20121;-69
2023/04/13 10:55:26;;;;;;;6.30;1.35;;;9.10;99.90;;;;;;5091059;28;20044;-67
2023/04/13 10:57:54;;;;;;;4.68;1.10;;;9.20;99.90;;;;;;5095718;28;20389;-66
2023/04/13 11:00:23;;;;;;;6.07;1.80;;;9.40;99.90;;;;;;5084380;28;20055;-67
2023/04/13 11:02:50;;;;;;;6.10;1.60;;;9.40;99.90;;;;;;5087727;28;20054;-67
2023/04/13 11:05:18;;;;;;;6.65;1.55;;;9.50;99.90;;;;;;5089878;28;20077;-68
2023/04/13 11:07:44;;;;;;;4.20;1.33;;;9.60;99.90;;;;;;5106183;28;20500;-70
2023/04/13 11:10:10;;;;;;;7.72;1.73;;;9.60;99.90;;;;;;5110268;28;20101;-67
2023/04/13 11:12:36;;;;;;;;;;;9.50;99.90;;;;;;5109852;28;20546;-69
2023/04/13 11:15:01;;;;;;;7.25;1.88;;;9.50;99.90;;;;;;5101490;28;19924;-69
2023/04/13 11:17:27;;;;;;;6.93;1.70;;;9.50;99.90;;;;;;5099569;28;20551;-68
2023/04/13 11:19:54;;;;;;;4.07;1.50;;;9.60;99.90;;;;;;5099801;28;20062;-68
2023/04/13 11:22:27;;;;;;;4.90;1.20;;;9.80;99.90;;;;;;5097953;28;20083;-68
2023/04/13 11:25:07;;;;;;;8.50;1.63;;;9.90;99.90;;;;;;5088713;28;20405;-67
2023/04/13 11:27:34;;;;;;;5.53;1.92;;;10.10;99.90;;;;;;5100941;28;20047;-68
2023/04/13 11:30:08;;;;;;;;;;;10.20;99.90;;;;;;5075781;28;20073;-68
2023/04/13 11:32:35;;;;;;;7.13;1.55;;;10.20;99.90;;;;;;5093199;28;19931;-68
2023/04/13 11:35:13;;;;;;;4.50;1.20;;;10.30;99.90;;;;;;5104389;28;20039;-68
2023/04/13 11:37:41;;;;;;;10.48;1.50;;;10.20;99.90;;;;;;5110130;28;20047;-68
2023/04/13 11:40:29;;;;;;;7.35;1.40;;;10.20;99.90;;;;;;5097008;28;20142;-69
2023/04/13 11:42:57;;;;;;;8.18;1.60;;;10.10;99.90;;;;;;5098209;28;20052;-67
2023/04/13 11:45:25;;;;;;;8.35;2.70;;;10.00;99.90;;;;;;5103492;28;20483;-68
2023/04/13 11:47:52;;;;;;;10.70;1.70;;;10.10;99.90;;;;;;5105823;28;20124;-67
2023/04/13 11:50:19;;;;;;;6.43;1.40;;;10.30;99.90;;;;;;5100225;28;20400;-68
2023/04/13 11:52:46;;;;;;;6.53;1.70;;;10.50;99.90;;;;;;5112596;28;20039;-68
2023/04/13 11:55:14;;;;;;;8.18;1.77;;;10.50;99.90;;;;;;5110144;28;20059;-67
2023/04/13 11:57:40;;;;;;;6.47;1.38;;;10.60;99.90;;;;;;5093171;28;20048;-68
2023/04/13 12:00:22;;;;;;;6.15;1.38;;;11.00;99.90;;;;;;5107371;28;20051;-68
2023/04/13 12:02:50;;;;;;;10.02;2.17;;;11.70;99.90;;;;;;5100514;28;20062;-70
2023/04/13 12:05:30;;;;;;;7.07;1.55;;;12.10;99.90;;;;;;5102304;28;20059;-69
2023/04/13 12:07:57;;;;;;;3.65;1.40;;;12.30;99.90;;;;;;5111908;28;20082;-68
2023/04/13 12:10:33;;;;;;;11.25;1.50;;;12.10;99.90;;;;;;5113547;28;20055;-68
2023/04/13 12:13:01;;;;;;;8.07;2.10;;;11.60;99.90;;;;;;5106356;28;20079;-68
2023/04/13 12:15:29;;;;;;;5.15;1.35;;;11.10;99.90;;;;;;5103378;28;20071;-69
2023/04/13 12:18:00;;;;;;;13.85;1.75;;;10.70;99.90;;;;;;5093933;28;20044;-68
2023/04/13 12:20:37;;;;;;;6.07;1.20;;;10.50;99.90;;;;;;5098996;28;20050;-69
2023/04/13 12:23:03;;;;;;;5.50;1.33;;;10.40;99.90;;;;;;5105917;28;20089;-70
2023/04/13 12:25:31;;;;;;;7.93;1.13;;;10.30;99.90;;;;;;5086778;28;20052;-68
2023/04/13 12:27:57;;;;;;;5.68;1.63;;;10.30;99.90;;;;;;5092044;28;20119;-69
2023/04/13 12:30:25;;;;;;;5.95;1.25;;;10.30;99.90;;;;;;5074829;28;20636;-69
2023/04/13 12:32:52;;;;;;;6.75;1.98;;;10.50;99.90;;;;;;5074423;28;20087;-69
2023/04/13 12:35:19;;;;;;;4.70;1.50;;;10.90;99.90;;;;;;5101385;28;20491;-69
2023/04/13 12:37:45;;;;;;;4.00;1.20;;;11.20;99.90;;;;;;5112454;28;20043;-68
2023/04/13 12:40:14;;;;;;;7.85;1.42;;;11.20;99.90;;;;;;5112378;28;20093;-68
2023/04/13 12:42:44;;;;;;;5.50;1.50;;;11.10;99.90;;;;;;5113223;28;20055;-68
2023/04/13 12:45:10;;;;;;;6.35;1.23;;;10.90;99.90;;;;;;5110567;28;20032;-69
2023/04/13 12:47:36;;;;;;;5.90;1.52;;;10.90;99.90;;;;;;5109435;28;20044;-70
2023/04/13 12:50:06;;;;;;;5.70;1.52;;;10.90;99.90;;;;;;5109295;28;20104;-70
2023/04/13 12:52:33;;;;;;;4.78;1.58;;;11.30;99.90;;;;;;5112398;28;20055;-69
2023/04/13 12:54:59;;;;;;;8.38;1.40;;;12.20;99.90;;;;;;5094765;28;20051;-69
2023/04/13 12:57:28;;;;;;;6.30;1.10;;;13.20;99.90;;;;;;5112976;28;20393;-69
2023/04/13 12:59:56;;;;;;;9.85;1.67;;;13.80;99.90;;;;;;5113391;28;20403;-72
2023/04/13 13:02:22;;;;;;;3.42;1.15;;;13.40;99.90;;;;;;5112948;28;20260;-68